Strona główna
METAR-TAF:

METAR-TAF

Lotnisko :

Dübendorf, Szwajcaria

Szerokość geograficzna: 47-23-55N, Długość geograficzna: 8-38-53E, wysokość: 448 m

Aktualna obserwacja pogody

Raport powstał 40 minut temu, godzina 19:50 UTC
Wiatr 1 kt z kierunków zmiennych
Temperatura 5°C
Wilgotność 93%
Ciśnienie 1021 hPa
Widzialność 10 km lub więcej
Mało chmury na wysokości 3100 ft
Zachmurzenie całkowite na wysokości 3600 ft

METAR: LSMD 071950Z AUTO VRB01KT 9999NDV FEW031 OVC036 05/04 Q1021 RMK

czas: 21:30 (20:30 UTC)


TAF: brakujący

Obserwacja i prognoza pogody dla ponad 4000 lotnisk (raport METAR i TAF).

Dostępne stacje oznaczono żółtymi i czerwonymi punktami na mapie.

Najedź kursorem aby zobaczyć nazwę stacji.

Kliknij aby zobaczyć obserwacje i prognozy pogody.

Aby zmienić mapę: kliknij na zielony przycisk z czarnym krzyżykiem, aby powiększyć; na zielony przycisk z myślnikiem, aby pomniejszyć; na zielone strzałki, aby przejść do map sąsiednich.


METAR-TAF: